createdAt,value
2017-05-24T00:00:51.922Z,45.40
2017-05-24T00:03:20.161Z,45.20
2017-05-24T00:05:48.381Z,45.10
2017-05-24T00:08:15.856Z,45.10
2017-05-24T00:10:44.193Z,44.90
2017-05-24T00:13:12.429Z,45.00
2017-05-24T00:15:40.663Z,44.90
2017-05-24T00:18:08.886Z,44.70
2017-05-24T00:20:37.189Z,45.00
2017-05-24T00:23:05.411Z,45.80
2017-05-24T00:25:33.651Z,44.70
2017-05-24T00:28:01.893Z,45.20
2017-05-24T00:30:30.131Z,44.50
2017-05-24T00:32:58.382Z,44.40
2017-05-24T00:35:26.617Z,44.30
2017-05-24T00:37:54.875Z,44.30
2017-05-24T00:40:23.190Z,44.70
2017-05-24T00:42:51.430Z,44.30
2017-05-24T00:45:19.664Z,44.60
2017-05-24T00:47:47.905Z,45.30
2017-05-24T00:50:16.140Z,44.40
2017-05-24T00:52:44.465Z,44.30
2017-05-24T00:55:12.701Z,44.60
2017-05-24T00:57:40.938Z,44.20
2017-05-24T01:00:09.171Z,44.20
2017-05-24T01:02:37.418Z,44.20
2017-05-24T01:05:05.664Z,44.20
2017-05-24T01:07:33.888Z,44.40
2017-05-24T01:10:02.179Z,44.40
2017-05-24T01:12:30.459Z,44.30
2017-05-24T01:14:58.681Z,44.80
2017-05-24T01:17:26.903Z,44.30
2017-05-24T01:19:55.194Z,44.30
2017-05-24T01:22:23.466Z,44.60
2017-05-24T01:24:51.701Z,44.70
2017-05-24T01:27:19.919Z,44.50
2017-05-24T01:29:48.158Z,44.50
2017-05-24T01:32:15.619Z,44.40
2017-05-24T01:34:43.859Z,44.60
2017-05-24T01:37:12.191Z,44.20
2017-05-24T01:39:40.414Z,44.40
2017-05-24T01:42:07.901Z,44.40
2017-05-24T01:44:36.202Z,44.30
2017-05-24T01:47:04.449Z,45.00
2017-05-24T01:49:32.686Z,44.10
2017-05-24T01:52:01.018Z,44.30
2017-05-24T01:54:29.263Z,44.00
2017-05-24T01:56:57.497Z,44.20
2017-05-24T01:59:25.758Z,44.30
2017-05-24T02:01:53.996Z,45.00
2017-05-24T02:04:22.229Z,44.50
2017-05-24T02:06:50.561Z,44.50
2017-05-24T02:09:18.792Z,44.50
2017-05-24T02:11:47.019Z,44.30
2017-05-24T02:14:15.315Z,44.40
2017-05-24T02:16:43.581Z,44.70
2017-05-24T02:19:11.817Z,44.10
2017-05-24T02:21:39.270Z,44.00
2017-05-24T02:24:07.500Z,44.10
2017-05-24T02:26:35.763Z,44.80
2017-05-24T02:29:03.998Z,44.00
2017-05-24T02:31:32.240Z,44.60
2017-05-24T02:34:00.477Z,44.60
2017-05-24T02:36:28.721Z,44.20
2017-05-24T02:39:00.311Z,44.80
2017-05-24T02:41:28.569Z,44.40
2017-05-24T02:43:56.794Z,44.60
2017-05-24T02:46:25.019Z,44.60
2017-05-24T02:48:53.258Z,44.10
2017-05-24T02:51:21.493Z,44.60
2017-05-24T02:53:49.734Z,44.30
2017-05-24T02:56:18.043Z,44.60
2017-05-24T02:58:46.286Z,44.70
2017-05-24T03:01:14.507Z,45.00
2017-05-24T03:03:42.750Z,44.70
2017-05-24T03:06:11.042Z,44.70
2017-05-24T03:08:39.365Z,44.70
2017-05-24T03:11:09.104Z,44.70
2017-05-24T03:13:36.686Z,44.70
2017-05-24T03:16:04.911Z,44.80
2017-05-24T03:18:33.237Z,44.80
2017-05-24T03:21:01.463Z,44.90
2017-05-24T03:23:29.686Z,45.10
2017-05-24T03:25:57.931Z,45.00
2017-05-24T03:28:26.281Z,44.70
2017-05-24T03:30:54.595Z,44.70
2017-05-24T03:33:22.889Z,44.70
2017-05-24T03:35:51.147Z,45.10
2017-05-24T03:38:19.441Z,44.30
2017-05-24T03:40:46.913Z,44.20
2017-05-24T03:43:15.176Z,44.90
2017-05-24T03:45:43.395Z,44.90
2017-05-24T03:48:10.879Z,44.80
2017-05-24T03:50:39.099Z,45.00
2017-05-24T03:53:07.442Z,45.00
2017-05-24T03:55:35.736Z,44.70
2017-05-24T03:58:03.996Z,44.80
2017-05-24T04:00:32.233Z,44.10
2017-05-24T04:03:00.455Z,44.20
2017-05-24T04:05:28.709Z,44.70
2017-05-24T04:07:56.945Z,44.70
2017-05-24T04:10:25.263Z,44.70
2017-05-24T04:12:53.558Z,44.90
2017-05-24T04:15:21.784Z,44.80
2017-05-24T04:17:50.172Z,44.80
2017-05-24T04:20:18.381Z,45.00
2017-05-24T04:22:46.608Z,44.40
2017-05-24T04:25:14.843Z,44.70
2017-05-24T04:27:43.868Z,44.70
2017-05-24T04:30:12.096Z,44.70
2017-05-24T04:32:40.380Z,45.10
2017-05-24T04:35:08.604Z,45.30
2017-05-24T04:37:36.827Z,44.70
2017-05-24T04:40:05.065Z,45.20
2017-05-24T04:42:33.302Z,44.90
2017-05-24T04:45:01.656Z,44.80
2017-05-24T04:47:29.888Z,44.80
2017-05-24T04:49:58.204Z,44.70
2017-05-24T04:52:26.449Z,45.20
2017-05-24T04:54:54.693Z,44.70
2017-05-24T04:57:22.937Z,43.80
2017-05-24T04:59:51.202Z,43.80
2017-05-24T05:02:19.439Z,43.90
2017-05-24T05:04:47.673Z,44.50
2017-05-24T05:07:15.919Z,44.50
2017-05-24T05:09:44.167Z,44.70
2017-05-24T05:12:12.391Z,44.80
2017-05-24T05:14:39.861Z,44.80
2017-05-24T05:17:08.097Z,45.00
2017-05-24T05:19:36.343Z,44.70
2017-05-24T05:22:03.809Z,44.70
2017-05-24T05:24:32.041Z,44.80
2017-05-24T05:27:00.263Z,44.90
2017-05-24T05:29:28.521Z,44.80
2017-05-24T05:31:56.845Z,45.10
2017-05-24T05:34:25.086Z,45.30
2017-05-24T05:36:53.378Z,45.40
2017-05-24T05:39:21.666Z,45.50
2017-05-24T05:41:49.899Z,45.90
2017-05-24T05:44:18.219Z,46.20
2017-05-24T05:46:47.321Z,45.70
2017-05-24T05:49:15.569Z,45.60
2017-05-24T05:51:43.807Z,45.80
2017-05-24T05:54:12.026Z,46.00
2017-05-24T05:56:40.286Z,45.80
2017-05-24T05:59:08.526Z,45.40
2017-05-24T06:01:36.855Z,45.60
2017-05-24T06:04:05.100Z,45.70
2017-05-24T06:06:33.338Z,45.80
2017-05-24T06:09:01.590Z,46.30
2017-05-24T06:11:29.826Z,46.10
2017-05-24T06:13:58.078Z,45.60
2017-05-24T06:16:26.321Z,45.70
2017-05-24T06:18:54.585Z,45.30
2017-05-24T06:21:22.866Z,45.30
2017-05-24T06:23:51.128Z,45.20
2017-05-24T06:26:19.415Z,45.20
2017-05-24T06:28:47.638Z,45.70
2017-05-24T06:31:15.967Z,45.20
2017-05-24T06:33:43.530Z,45.20
2017-05-24T06:36:11.807Z,45.20
2017-05-24T06:38:40.077Z,45.10
2017-05-24T06:41:08.330Z,45.50
2017-05-24T06:43:36.629Z,45.00
2017-05-24T06:46:04.858Z,44.90
2017-05-24T06:48:33.181Z,44.60
2017-05-24T06:51:01.444Z,44.70
2017-05-24T06:53:29.681Z,44.60
2017-05-24T06:55:58.005Z,44.70
2017-05-24T06:58:26.286Z,44.80
2017-05-24T07:00:54.521Z,44.40
2017-05-24T07:03:22.833Z,44.40
2017-05-24T07:05:51.109Z,44.30
2017-05-24T07:08:19.387Z,44.70
2017-05-24T07:10:47.625Z,44.20
2017-05-24T07:13:15.893Z,44.00
2017-05-24T07:15:44.133Z,44.30
2017-05-24T07:18:13.404Z,44.50
2017-05-24T07:20:41.689Z,43.80
2017-05-24T07:23:09.928Z,43.80
2017-05-24T07:25:38.175Z,44.50
2017-05-24T07:28:06.415Z,44.40
2017-05-24T07:30:34.729Z,44.90
2017-05-24T07:33:02.949Z,44.10
2017-05-24T07:35:31.183Z,44.30
2017-05-24T07:37:59.501Z,44.40
2017-05-24T07:40:27.728Z,44.40
2017-05-24T07:42:56.043Z,44.30
2017-05-24T07:45:24.338Z,44.10
2017-05-24T07:47:52.581Z,44.40
2017-05-24T07:50:20.849Z,44.30
2017-05-24T07:52:49.092Z,44.50
2017-05-24T07:55:17.322Z,44.40
2017-05-24T07:57:45.544Z,44.40
2017-05-24T08:00:13.793Z,44.40
2017-05-24T08:02:42.061Z,44.40
2017-05-24T08:05:10.349Z,44.40
2017-05-24T08:07:38.586Z,44.40
2017-05-24T08:10:06.807Z,44.40
2017-05-24T08:12:35.035Z,44.10
2017-05-24T08:15:03.336Z,44.40
2017-05-24T08:17:31.618Z,44.50
2017-05-24T08:19:59.859Z,45.00
2017-05-24T08:22:28.113Z,44.70
2017-05-24T08:24:55.571Z,44.20
2017-05-24T08:27:23.795Z,44.40
2017-05-24T08:29:52.064Z,44.30
2017-05-24T08:32:20.296Z,44.60
2017-05-24T08:34:48.619Z,44.50
2017-05-24T08:37:16.854Z,44.50
2017-05-24T08:39:45.090Z,44.60
2017-05-24T08:42:13.325Z,44.50
2017-05-24T08:44:41.623Z,44.30
2017-05-24T08:47:09.899Z,44.50
2017-05-24T08:49:38.169Z,44.50
2017-05-24T08:52:06.436Z,44.10
2017-05-24T08:54:34.722Z,44.40
2017-05-24T08:57:02.946Z,44.30
2017-05-24T08:59:31.178Z,44.00
2017-05-24T09:01:59.399Z,44.20
2017-05-24T09:04:27.711Z,44.20
2017-05-24T09:06:55.997Z,44.10
2017-05-24T09:09:24.234Z,44.50
2017-05-24T09:11:52.550Z,44.40
2017-05-24T09:14:20.826Z,44.40
2017-05-24T09:16:49.072Z,44.40
2017-05-24T09:19:17.310Z,44.20
2017-05-24T09:21:45.563Z,43.80
2017-05-24T09:24:13.816Z,44.00
2017-05-24T09:26:41.285Z,43.90
2017-05-24T09:29:09.526Z,44.30
2017-05-24T09:31:37.751Z,44.00
2017-05-24T09:34:05.980Z,44.20
2017-05-24T09:36:34.274Z,44.10
2017-05-24T09:39:02.518Z,43.90
2017-05-24T09:41:30.774Z,43.90
2017-05-24T09:43:59.054Z,44.20
2017-05-24T09:46:27.290Z,43.90
2017-05-24T09:48:55.525Z,43.90
2017-05-24T09:51:23.742Z,43.80
2017-05-24T09:53:51.979Z,43.90
2017-05-24T09:56:20.262Z,43.90
2017-05-24T09:58:48.499Z,43.80
2017-05-24T10:01:16.719Z,43.80
2017-05-24T10:03:44.961Z,43.90
2017-05-24T10:06:12.418Z,43.90
2017-05-24T10:08:40.727Z,43.80
2017-05-24T10:11:09.058Z,43.80
2017-05-24T10:13:37.393Z,43.90
2017-05-24T10:16:05.633Z,43.90
2017-05-24T10:18:33.941Z,43.80
2017-05-24T10:21:01.502Z,43.70
2017-05-24T10:23:29.741Z,43.90
2017-05-24T10:25:57.990Z,43.90
2017-05-24T10:28:26.329Z,44.00
2017-05-24T10:30:54.600Z,44.10
2017-05-24T10:33:22.846Z,44.10
2017-05-24T10:35:51.077Z,44.00
2017-05-24T10:38:19.314Z,44.00
2017-05-24T10:41:04.213Z,44.10
2017-05-24T10:43:32.449Z,44.00
2017-05-24T10:46:00.686Z,44.00
2017-05-24T10:48:28.911Z,43.90
2017-05-24T10:50:57.141Z,43.90
2017-05-24T10:53:25.375Z,43.80
2017-05-24T10:55:53.619Z,43.90
2017-05-24T10:58:21.866Z,44.00
2017-05-24T11:00:50.093Z,44.40
2017-05-24T11:03:18.342Z,44.00
2017-05-24T11:05:46.581Z,43.90
2017-05-24T11:08:14.913Z,43.90
2017-05-24T11:10:43.153Z,44.20
2017-05-24T11:13:11.387Z,44.00
2017-05-24T11:15:39.645Z,44.10
2017-05-24T11:18:07.898Z,44.10
2017-05-24T11:20:36.115Z,44.10
2017-05-24T11:23:04.339Z,44.00
2017-05-24T11:25:32.627Z,44.10
2017-05-24T11:28:00.866Z,44.10
2017-05-24T11:30:29.179Z,44.20
2017-05-24T11:32:57.415Z,43.80
2017-05-24T11:35:25.732Z,44.10
2017-05-24T11:37:54.346Z,44.10
2017-05-24T11:40:22.613Z,44.00
2017-05-24T11:42:50.841Z,44.00
2017-05-24T11:45:19.078Z,44.00
2017-05-24T11:47:47.313Z,43.90
2017-05-24T11:50:15.541Z,43.90
2017-05-24T11:52:43.767Z,43.90
2017-05-24T11:55:12.009Z,44.40
2017-05-24T11:57:40.242Z,44.10
2017-05-24T12:00:08.471Z,44.00
2017-05-24T12:02:36.704Z,44.00
2017-05-24T12:05:05.030Z,43.90
2017-05-24T12:07:33.315Z,44.00
2017-05-24T12:10:01.596Z,44.00
2017-05-24T12:12:29.842Z,44.60
2017-05-24T12:14:58.138Z,44.60
2017-05-24T12:17:26.417Z,44.60
2017-05-24T12:19:54.654Z,44.60
2017-05-24T12:22:22.125Z,44.60
2017-05-24T12:24:49.584Z,44.50
2017-05-24T12:27:17.834Z,44.60
2017-05-24T12:29:45.291Z,44.60
2017-05-24T12:32:13.520Z,44.60
2017-05-24T12:34:41.749Z,44.60
2017-05-24T12:37:10.065Z,44.50
2017-05-24T12:39:38.306Z,44.30
2017-05-24T12:42:06.541Z,44.10
2017-05-24T12:44:34.020Z,44.10
2017-05-24T12:47:02.261Z,43.90
2017-05-24T12:49:30.533Z,43.70
2017-05-24T12:51:58.764Z,44.20
2017-05-24T12:54:26.991Z,43.20
2017-05-24T12:56:55.219Z,43.30
2017-05-24T12:59:23.457Z,43.40
2017-05-24T13:01:51.689Z,43.30
2017-05-24T13:04:19.926Z,43.30
2017-05-24T13:06:48.235Z,41.90
2017-05-24T13:09:16.492Z,41.40
2017-05-24T13:11:44.801Z,41.50
2017-05-24T13:14:13.044Z,42.20
2017-05-24T13:16:41.350Z,42.40
2017-05-24T13:19:09.629Z,42.60
2017-05-24T13:21:37.881Z,42.80
2017-05-24T13:24:06.116Z,42.80
2017-05-24T13:26:34.342Z,42.40
2017-05-24T13:29:02.573Z,42.70
2017-05-24T13:31:30.910Z,42.60
2017-05-24T13:33:59.135Z,42.60
2017-05-24T13:36:26.605Z,42.60
2017-05-24T13:38:54.842Z,42.60
2017-05-24T13:41:23.065Z,42.60
2017-05-24T13:43:51.303Z,42.70
2017-05-24T13:46:19.537Z,42.80
2017-05-24T13:48:47.768Z,42.60
2017-05-24T13:51:16.007Z,42.60
2017-05-24T13:53:44.254Z,42.70
2017-05-24T13:56:12.481Z,42.80
2017-05-24T13:58:40.730Z,42.90
2017-05-24T14:01:13.108Z,43.20
2017-05-24T14:03:41.926Z,43.10
2017-05-24T14:06:10.234Z,42.90
2017-05-24T14:08:38.508Z,42.80
2017-05-24T14:11:06.753Z,42.70
2017-05-24T14:13:35.053Z,42.60
2017-05-24T14:16:03.289Z,42.60
2017-05-24T14:18:31.525Z,42.70
2017-05-24T14:20:59.751Z,42.80
2017-05-24T14:23:27.971Z,42.60
2017-05-24T14:25:56.242Z,42.40
2017-05-24T14:28:24.486Z,42.90
2017-05-24T14:30:52.723Z,42.40
2017-05-24T14:33:21.066Z,42.40
2017-05-24T14:35:49.345Z,42.90
2017-05-24T14:38:17.618Z,42.70
2017-05-24T14:40:45.858Z,42.90
2017-05-24T14:43:14.161Z,43.10
2017-05-24T14:45:42.449Z,43.10
2017-05-24T14:48:10.722Z,43.70
2017-05-24T14:50:38.980Z,43.10
2017-05-24T14:53:07.216Z,43.00
2017-05-24T14:55:35.456Z,43.00
2017-05-24T14:58:03.721Z,43.00
2017-05-24T15:00:31.962Z,43.00
2017-05-24T15:03:00.197Z,43.00
2017-05-24T15:05:28.491Z,43.50
2017-05-24T15:07:56.737Z,43.00
2017-05-24T15:10:24.988Z,42.90
2017-05-24T15:12:53.215Z,43.10
2017-05-24T15:15:21.453Z,43.10
2017-05-24T15:17:49.707Z,43.00
2017-05-24T15:20:17.957Z,43.00
2017-05-24T15:22:46.194Z,43.10
2017-05-24T15:25:14.550Z,43.00
2017-05-24T15:27:42.770Z,43.20
2017-05-24T15:30:11.026Z,43.50
2017-05-24T15:32:39.261Z,43.40
2017-05-24T15:35:07.539Z,43.50
2017-05-24T15:37:35.781Z,43.60
2017-05-24T15:40:04.097Z,43.60
2017-05-24T15:42:32.333Z,43.70
2017-05-24T15:45:00.635Z,43.80
2017-05-24T15:47:28.912Z,43.90
2017-05-24T15:49:57.154Z,43.90
2017-05-24T15:52:25.401Z,43.80
2017-05-24T15:54:53.623Z,43.60
2017-05-24T15:57:21.856Z,43.50
2017-05-24T15:59:50.099Z,43.40
2017-05-24T16:02:18.362Z,43.40
2017-05-24T16:04:46.584Z,43.40
2017-05-24T16:07:14.821Z,43.50
2017-05-24T16:09:43.058Z,43.50
2017-05-24T16:12:11.293Z,43.70
2017-05-24T16:14:39.546Z,43.60
2017-05-24T16:17:07.785Z,43.80
2017-05-24T16:19:36.005Z,43.90
2017-05-24T16:22:04.274Z,43.90
2017-05-24T16:24:32.541Z,43.80
2017-05-24T16:27:00.771Z,44.50
2017-05-24T16:29:29.026Z,44.00
2017-05-24T16:31:57.252Z,44.00
2017-05-24T16:34:25.493Z,44.10
2017-05-24T16:36:53.803Z,44.30
2017-05-24T16:39:22.037Z,44.20
2017-05-24T16:41:50.259Z,44.30
2017-05-24T16:44:18.493Z,44.20
2017-05-24T16:46:46.723Z,44.30
2017-05-24T16:49:14.957Z,44.30
2017-05-24T16:51:43.270Z,44.40
2017-05-24T16:54:11.509Z,44.50
2017-05-24T16:56:39.823Z,44.50
2017-05-24T16:59:08.071Z,44.60
2017-05-24T17:01:36.336Z,44.40
2017-05-24T17:04:04.569Z,44.70
2017-05-24T17:06:32.814Z,44.60
2017-05-24T17:09:01.080Z,44.60
2017-05-24T17:11:29.366Z,44.60
2017-05-24T17:13:57.613Z,45.20
2017-05-24T17:16:25.849Z,44.70
2017-05-24T17:18:54.092Z,44.70
2017-05-24T17:21:22.361Z,44.70
2017-05-24T17:23:50.593Z,44.70
2017-05-24T17:26:18.908Z,44.80
2017-05-24T17:28:47.148Z,44.80
2017-05-24T17:31:15.371Z,44.70
2017-05-24T17:33:43.606Z,44.80
2017-05-24T17:36:11.846Z,44.80
2017-05-24T17:38:40.179Z,44.80
2017-05-24T17:41:08.469Z,44.90
2017-05-24T17:43:36.699Z,44.90
2017-05-24T17:46:04.967Z,44.90
2017-05-24T17:48:33.293Z,44.80
2017-05-24T17:51:01.533Z,45.10
2017-05-24T17:53:29.777Z,44.70
2017-05-24T17:55:58.010Z,44.80
2017-05-24T17:58:26.218Z,44.80
2017-05-24T18:00:54.563Z,44.80
2017-05-24T18:03:22.851Z,44.70
2017-05-24T18:05:51.080Z,44.80
2017-05-24T18:08:19.324Z,44.80
2017-05-24T18:10:47.569Z,44.80
2017-05-24T18:13:15.801Z,44.80
2017-05-24T18:15:44.113Z,44.70
2017-05-24T18:18:12.362Z,45.30
2017-05-24T18:20:40.677Z,44.80
2017-05-24T18:23:08.920Z,44.70
2017-05-24T18:25:37.156Z,44.80
2017-05-24T18:28:05.385Z,44.90
2017-05-24T18:30:33.642Z,44.80
2017-05-24T18:33:01.950Z,44.80
2017-05-24T18:35:30.214Z,45.50
2017-05-24T18:37:58.441Z,44.90
2017-05-24T18:40:26.677Z,45.00
2017-05-24T18:42:54.918Z,45.40
2017-05-24T18:45:23.154Z,44.90
2017-05-24T18:47:51.489Z,44.90
2017-05-24T18:50:19.741Z,45.00
2017-05-24T18:52:47.971Z,45.00
2017-05-24T18:55:16.196Z,45.00
2017-05-24T18:57:44.436Z,44.90
2017-05-24T19:00:12.773Z,45.00
2017-05-24T19:02:41.038Z,45.00
2017-05-24T19:05:09.283Z,45.00
2017-05-24T19:07:37.521Z,45.00
2017-05-24T19:10:06.809Z,45.00
2017-05-24T19:12:35.075Z,45.00
2017-05-24T19:15:03.299Z,45.10
2017-05-24T19:17:31.546Z,45.10
2017-05-24T19:19:59.771Z,45.10
2017-05-24T19:22:27.991Z,45.10
2017-05-24T19:24:56.240Z,45.00
2017-05-24T19:27:24.523Z,45.00
2017-05-24T19:29:52.793Z,45.00
2017-05-24T19:32:21.079Z,45.00
2017-05-24T19:34:49.318Z,45.00
2017-05-24T19:37:17.621Z,45.10
2017-05-24T19:39:45.901Z,45.00
2017-05-24T19:42:14.174Z,45.00
2017-05-24T19:44:42.450Z,45.00
2017-05-24T19:47:10.690Z,45.00
2017-05-24T19:49:38.940Z,45.10
2017-05-24T19:52:07.164Z,45.10
2017-05-24T19:54:35.406Z,45.10
2017-05-24T19:57:03.633Z,45.10
2017-05-24T19:59:31.873Z,45.10
2017-05-24T20:02:00.118Z,45.10
2017-05-24T20:04:28.451Z,45.10
2017-05-24T20:06:56.697Z,45.10
2017-05-24T20:09:24.928Z,45.10
2017-05-24T20:11:53.159Z,45.10
2017-05-24T20:14:21.401Z,45.20
2017-05-24T20:16:49.643Z,45.20
2017-05-24T20:19:17.879Z,45.20
2017-05-24T20:21:46.115Z,45.30
2017-05-24T20:24:14.335Z,45.30
2017-05-24T20:26:42.620Z,45.30
2017-05-24T20:29:10.849Z,45.30
2017-05-24T20:31:39.082Z,45.40
2017-05-24T20:34:07.320Z,45.40
2017-05-24T20:36:35.559Z,45.40
2017-05-24T20:39:03.812Z,45.50
2017-05-24T20:41:32.071Z,45.50
2017-05-24T20:44:00.295Z,45.60
2017-05-24T20:46:28.523Z,45.60
2017-05-24T20:48:56.766Z,46.00
2017-05-24T20:51:24.997Z,45.60
2017-05-24T20:53:53.239Z,45.60
2017-05-24T20:56:21.507Z,45.70
2017-05-24T20:58:50.509Z,45.70
2017-05-24T21:01:18.779Z,45.70
2017-05-24T21:03:47.007Z,45.70
2017-05-24T21:06:15.240Z,45.70
2017-05-24T21:08:43.509Z,45.80
2017-05-24T21:11:11.793Z,45.80
2017-05-24T21:13:40.015Z,45.80
2017-05-24T21:16:08.240Z,45.70
2017-05-24T21:18:36.426Z,45.80
2017-05-24T21:21:04.775Z,45.80
2017-05-24T21:23:33.051Z,45.80
2017-05-24T21:26:01.289Z,45.90
2017-05-24T21:28:29.525Z,45.90
2017-05-24T21:30:57.756Z,45.80
2017-05-24T21:33:25.979Z,45.80
2017-05-24T21:35:54.214Z,45.80
2017-05-24T21:38:22.461Z,45.80
2017-05-24T21:40:50.697Z,45.90
2017-05-24T21:43:19.066Z,45.90
2017-05-24T21:45:47.338Z,45.90
2017-05-24T21:48:15.578Z,45.90
2017-05-24T22:04:16.707Z,46.20
2017-05-24T22:06:44.934Z,46.10
2017-05-24T22:09:13.175Z,46.10
2017-05-24T22:11:41.409Z,46.10
2017-05-24T22:14:09.646Z,46.10
2017-05-24T22:16:37.894Z,46.10
2017-05-24T22:19:06.135Z,46.20
2017-05-24T22:21:34.371Z,46.20
2017-05-24T22:24:02.604Z,46.20
2017-05-24T22:26:30.852Z,46.20
2017-05-24T22:28:59.085Z,46.20
2017-05-24T22:31:27.335Z,46.60
2017-05-24T22:33:55.570Z,46.20
2017-05-24T22:36:23.838Z,46.20
2017-05-24T22:38:52.180Z,46.20
2017-05-24T22:41:20.463Z,46.30
2017-05-24T22:43:48.691Z,46.20
2017-05-24T22:46:17.022Z,46.30
2017-05-24T22:48:45.271Z,46.30
2017-05-24T22:51:13.510Z,46.20
2017-05-24T22:53:41.758Z,46.20
2017-05-24T22:56:09.983Z,46.30
2017-05-24T22:58:38.234Z,46.20
2017-05-24T23:01:06.473Z,46.30
2017-05-24T23:03:34.730Z,46.30
2017-05-24T23:06:03.018Z,46.20
2017-05-24T23:08:31.272Z,46.30
2017-05-24T23:10:59.555Z,46.20
2017-05-24T23:13:27.799Z,46.20
2017-05-24T23:15:56.020Z,46.20
2017-05-24T23:18:24.260Z,46.30
2017-05-24T23:20:52.565Z,46.20
2017-05-24T23:23:20.799Z,45.80
2017-05-24T23:25:49.041Z,46.30
2017-05-24T23:28:17.284Z,46.30
2017-05-24T23:30:45.529Z,46.30
2017-05-24T23:33:13.839Z,46.30
2017-05-24T23:35:42.084Z,46.30
2017-05-24T23:38:10.394Z,46.30
2017-05-24T23:40:38.644Z,46.30
2017-05-24T23:43:06.882Z,46.30
2017-05-24T23:45:35.108Z,46.30
2017-05-24T23:48:03.348Z,46.30
2017-05-24T23:50:31.571Z,46.30
2017-05-24T23:52:59.846Z,46.30
2017-05-24T23:55:28.086Z,46.30
2017-05-24T23:57:56.393Z,46.30
